Time;durP1;ratioP1;P1;durP2;ratioP2;P2;SDS_P1;SDS_P2;PMS_P1;PMS_P2;Temp;Humidity;BMP_temperature;BMP_pressure;BME280_temperature;BME280_humidity;BME280_pressure;Samples;Min_cycle;Max_cycle;Signal;HPM_P1;HPM_P2
2021/06/14 00:00:04;;;;;;;5.20;2.83;;;;;;;22.74;43.48;102314.94;5053373;28;20065;-56
2021/06/14 00:02:29;;;;;;;5.72;2.88;;;;;;;22.74;43.34;102315.78;5053638;28;20025;-58
2021/06/14 00:04:55;;;;;;;5.35;3.00;;;;;;;22.74;43.43;102309.63;5053544;28;20477;-57
2021/06/14 00:07:21;;;;;;;6.20;2.65;;;;;;;22.73;43.33;102314.09;5052430;28;20220;-57
2021/06/14 00:12:35;;;;;;;4.97;2.90;;;;;;;22.72;43.36;102312.41;5047695;28;20035;-57
2021/06/14 00:15:01;;;;;;;5.07;2.50;;;;;;;22.72;43.24;102312.41;5051899;28;20395;-56
2021/06/14 00:17:26;;;;;;;4.60;2.53;;;;;;;22.71;43.25;102309.88;5053450;28;20365;-56
2021/06/14 00:19:52;;;;;;;5.72;2.80;;;;;;;22.70;43.18;102309.03;5053431;28;20038;-57
2021/06/14 00:22:18;;;;;;;5.73;2.80;;;;;;;22.71;43.27;102309.88;5052003;28;20138;-57
2021/06/14 00:24:43;;;;;;;5.20;2.67;;;;;;;22.68;43.26;102300.31;5053139;28;20758;-56
2021/06/14 00:27:10;;;;;;;5.18;2.97;;;;;;;22.71;43.57;102304.53;5052956;28;20167;-57
2021/06/14 00:29:36;;;;;;;4.93;2.90;;;;;;;22.70;43.40;102303.72;5052308;28;20031;-56
2021/06/14 00:32:05;;;;;;;6.55;3.00;;;;;;;22.70;43.47;102298.41;5052966;28;20111;-56
2021/06/14 00:34:30;;;;;;;5.35;2.67;;;;;;;22.69;43.39;102293.19;5052617;28;20036;-57
2021/06/14 00:36:55;;;;;;;5.63;2.78;;;;;;;22.69;43.68;102295.84;5052496;28;20024;-56
2021/06/14 00:39:20;;;;;;;4.65;2.80;;;;;;;22.69;43.47;102291.38;5052715;28;20037;-56
2021/06/14 00:41:46;;;;;;;5.22;2.70;;;;;;;22.67;43.54;102281.81;5052756;28;20488;-56
2021/06/14 00:44:11;;;;;;;5.03;2.78;;;;;;;22.68;43.66;102278.22;5051900;28;20028;-57
2021/06/14 00:46:36;;;;;;;4.80;2.53;;;;;;;22.67;43.59;102276.50;5052827;28;20032;-56
2021/06/14 00:49:03;;;;;;;4.70;2.67;;;;;;;22.64;43.59;102267.81;5052465;28;20365;-56
2021/06/14 00:51:29;;;;;;;5.50;3.08;;;;;;;22.66;43.47;102270.34;5051891;28;20025;-57
2021/06/14 00:54:00;;;;;;;5.00;2.90;;;;;;;22.66;43.42;102272.19;5052949;28;20074;-56
2021/06/14 00:56:28;;;;;;;6.38;3.00;;;;;;;22.66;43.46;102272.19;5051438;28;20495;-57
2021/06/14 00:58:53;;;;;;;5.15;2.67;;;;;;;22.66;43.52;102274.84;5052489;28;20043;-57
2021/06/14 01:01:19;;;;;;;4.55;2.50;;;;;;;22.63;43.51;102268.78;5052151;28;20037;-56
2021/06/14 01:03:45;;;;;;;4.97;2.70;;;;;;;22.64;43.48;102269.66;5051377;28;20489;-56
2021/06/14 01:06:12;;;;;;;5.40;2.70;;;;;;;22.60;43.52;102257.56;5052210;28;20064;-56
2021/06/14 01:08:42;;;;;;;5.65;2.90;;;;;;;22.62;43.56;102252.97;5052492;28;20101;-56
2021/06/14 01:11:46;;;;;;;5.10;2.80;;;;;;;22.62;43.45;102252.97;5051173;28;20348;-56
2021/06/14 01:14:29;;;;;;;5.13;3.20;;;;;;;22.62;43.52;102252.97;5050339;28;20102;-57
2021/06/14 01:17:04;;;;;;;5.03;2.60;;;;;;;22.61;43.38;102253.94;5052434;28;20032;-56
2021/06/14 01:19:58;;;;;;;5.70;3.03;;;;;;;22.60;43.32;102245.09;5051704;28;20028;-56
2021/06/14 01:22:51;;;;;;;4.78;3.00;;;;;;;22.59;43.36;102245.25;5029383;28;20037;-57
2021/06/14 01:25:25;;;;;;;5.15;2.70;;;;;;;22.59;43.39;102240.78;5051263;28;20189;-56
2021/06/14 01:27:56;;;;;;;5.32;2.90;;;;;;;22.58;43.57;102246.22;5051363;28;20060;-57
2021/06/14 01:30:24;;;;;;;5.90;3.00;;;;;;;22.58;43.46;102233.75;5051731;28;20400;-57
2021/06/14 01:32:50;;;;;;;5.47;3.08;;;;;;;22.58;43.57;102235.59;5051144;28;20045;-55
2021/06/14 01:35:33;;;;;;;6.50;3.22;;;;;;;22.57;43.55;102237.41;5051507;28;20029;-56
2021/06/14 01:38:00;;;;;;;5.70;2.80;;;;;;;22.55;43.51;102231.34;5052128;28;20021;-56
2021/06/14 01:40:26;;;;;;;6.78;3.13;;;;;;;22.56;43.47;102226.91;5051022;28;20021;-57
2021/06/14 01:42:55;;;;;;;6.55;2.90;;;;;;;22.53;43.39;102233.28;5051884;28;20383;-56
2021/06/14 01:45:23;;;;;;;5.78;3.03;;;;;;;22.56;43.27;102224.25;5051519;28;20112;-56
2021/06/14 01:47:52;;;;;;;5.40;2.85;;;;;;;22.55;43.44;102225.19;5051010;28;20116;-57
2021/06/14 01:50:21;;;;;;;7.18;3.17;;;;;;;22.54;43.23;102220.84;5051541;28;20131;-57
2021/06/14 01:52:47;;;;;;;5.60;3.13;;;;;;;22.54;43.43;102220.84;5051031;28;20025;-56
2021/06/14 01:55:17;;;;;;;6.38;3.22;;;;;;;22.55;43.27;102219.88;5051438;28;20025;-56
2021/06/14 01:57:42;;;;;;;6.22;2.97;;;;;;;22.53;43.35;102213.84;5051764;28;20025;-58
2021/06/14 02:00:09;;;;;;;5.88;3.10;;;;;;;22.49;43.50;102205.25;5050521;28;20021;-56
2021/06/14 02:02:36;;;;;;;5.43;2.97;;;;;;;22.52;43.48;102213.00;5051851;28;20107;-57
2021/06/14 02:05:02;;;;;;;4.78;2.92;;;;;;;22.52;43.44;102204.19;5051594;28;20033;-56
2021/06/14 02:07:29;;;;;;;4.88;2.80;;;;;;;22.52;43.43;102199.69;5051222;28;20393;-57
2021/06/14 02:09:57;;;;;;;5.18;2.90;;;;;;;22.52;43.55;102209.50;5051666;28;20051;-57
2021/06/14 02:12:24;;;;;;;4.63;2.78;;;;;;;22.52;43.49;102201.53;5051095;28;20092;-56
2021/06/14 02:14:50;;;;;;;5.07;2.72;;;;;;;22.51;43.37;102198.03;5050596;28;20052;-54
2021/06/14 02:17:20;;;;;;;5.38;2.88;;;;;;;22.51;43.30;102192.72;5051456;28;20029;-56
2021/06/14 02:19:47;;;;;;;4.63;2.83;;;;;;;22.51;43.37;102189.19;5051646;28;20143;-57
2021/06/14 02:22:14;;;;;;;5.05;3.08;;;;;;;22.49;43.52;102193.78;5050415;28;20100;-57
2021/06/14 02:24:40;;;;;;;5.90;3.00;;;;;;;22.48;43.43;102185.00;5051680;28;20107;-57
2021/06/14 02:27:08;;;;;;;4.93;2.90;;;;;;;22.49;43.36;102181.34;5051124;28;20029;-56
2021/06/14 02:29:37;;;;;;;6.13;2.95;;;;;;;22.46;43.39;102179.81;5050838;28;20020;-57
2021/06/14 02:32:03;;;;;;;5.05;2.80;;;;;;;22.48;43.45;102179.69;5050909;28;20429;-57
2021/06/14 02:34:28;;;;;;;5.25;2.83;;;;;;;22.48;43.53;102173.50;5051364;28;20083;-57
2021/06/14 02:36:55;;;;;;;5.45;2.95;;;;;;;22.49;43.39;102169.88;5050641;28;20021;-57
2021/06/14 02:39:30;;;;;;;5.70;3.17;;;;;;;22.48;43.33;102163.75;5053307;28;20441;-57
2021/06/14 02:41:56;;;;;;;5.20;2.90;;;;;;;22.44;43.41;102151.66;5054324;28;20017;-57
2021/06/14 02:44:27;;;;;;;4.38;2.60;;;;;;;22.44;43.51;102154.31;5054756;28;20086;-58
2021/06/14 02:47:02;;;;;;;5.47;2.78;;;;;;;22.46;43.49;102157.69;5055125;28;20120;-56
2021/06/14 02:49:29;;;;;;;5.07;2.90;;;;;;;22.45;43.14;102154.19;5054494;28;20040;-59
2021/06/14 02:51:57;;;;;;;5.32;3.25;;;;;;;22.43;43.34;102152.63;5036963;28;20025;-57
2021/06/14 02:54:29;;;;;;;5.25;3.08;;;;;;;22.45;43.56;102158.66;5054449;28;20029;-57
2021/06/14 02:57:01;;;;;;;5.13;2.90;;;;;;;22.44;43.60;102151.66;5054277;28;20090;-57
2021/06/14 02:59:28;;;;;;;5.88;3.00;;;;;;;22.43;43.38;102158.78;5055017;28;20052;-57
2021/06/14 03:01:54;;;;;;;4.88;2.85;;;;;;;22.43;43.58;102149.97;5054732;28;20373;-56
2021/06/14 03:04:21;;;;;;;5.80;3.10;;;;;;;22.42;43.39;102157.09;5053664;28;20025;-57
2021/06/14 03:06:50;;;;;;;6.07;3.28;;;;;;;22.43;43.40;102157.94;5053525;28;20553;-56
2021/06/14 03:09:16;;;;;;;4.90;2.70;;;;;;;22.42;43.51;102167.72;5054253;28;20029;-57
2021/06/14 03:11:43;;;;;;;6.35;2.75;;;;;;;22.41;43.49;102165.19;5053943;28;20055;-56
2021/06/14 03:14:12;;;;;;;5.82;3.22;;;;;;;22.41;43.56;102166.03;5054026;28;20049;-57
2021/06/14 03:16:38;;;;;;;5.47;2.80;;;;;;;22.39;43.44;102162.66;5054404;28;20032;-58
2021/06/14 03:19:08;;;;;;;5.10;2.85;;;;;;;22.40;43.39;102161.69;5053175;28;20079;-56
2021/06/14 03:21:34;;;;;;;4.80;2.88;;;;;;;22.39;43.48;102159.16;5054086;28;20029;-58
2021/06/14 03:24:00;;;;;;;4.80;2.80;;;;;;;22.38;43.48;102158.31;5053945;28;20098;-55
2021/06/14 03:26:29;;;;;;;6.00;3.33;;;;;;;22.39;43.37;102161.81;5054090;28;20048;-57
2021/06/14 03:28:56;;;;;;;5.50;2.50;;;;;;;22.36;43.36;102152.25;5054200;28;20096;-56
2021/06/14 03:31:22;;;;;;;6.28;3.10;;;;;;;22.39;43.47;102151.19;5052992;28;20025;-56
2021/06/14 03:33:50;;;;;;;5.50;2.80;;;;;;;22.37;43.44;102153.97;5054007;28;20044;-57
2021/06/14 03:36:18;;;;;;;4.80;3.05;;;;;;;22.38;43.36;102144.16;5053623;28;20032;-56
2021/06/14 03:38:47;;;;;;;5.68;3.00;;;;;;;22.37;43.56;102153.13;5052196;28;20037;-56
2021/06/14 03:41:14;;;;;;;5.18;3.20;;;;;;;22.36;43.45;102148.78;5053802;28;20029;-56
2021/06/14 03:43:39;;;;;;;5.70;3.00;;;;;;;22.35;43.44;102157.69;5054040;28;20028;-56
2021/06/14 03:46:08;;;;;;;5.15;2.58;;;;;;;22.35;43.23;102153.25;5052990;28;20017;-56
2021/06/14 03:48:34;;;;;;;4.88;2.70;;;;;;;22.35;43.20;102158.56;5053921;28;20025;-57
2021/06/14 03:50:59;;;;;;;4.93;2.85;;;;;;;22.36;43.45;102162.88;5053174;28;20039;-57
2021/06/14 03:53:33;;;;;;;5.88;3.13;;;;;;;22.35;43.47;102157.69;5052841;28;20108;-57
2021/06/14 03:55:59;;;;;;;5.60;3.20;;;;;;;22.35;43.47;102160.34;5053948;28;20021;-55
2021/06/14 03:58:25;;;;;;;5.75;2.80;;;;;;;22.34;43.36;102162.16;5053520;28;20021;-56
2021/06/14 04:00:53;;;;;;;5.05;3.13;;;;;;;22.34;43.32;102167.47;5052823;28;20082;-57
2021/06/14 04:03:21;;;;;;;6.15;3.00;;;;;;;22.34;43.54;102166.66;5053522;28;20032;-56
2021/06/14 04:05:46;;;;;;;4.80;2.97;;;;;;;22.33;43.38;102156.97;5053638;28;20033;-57
2021/06/14 04:08:13;;;;;;;5.10;3.00;;;;;;;22.33;43.32;102160.47;5052547;28;20029;-57
2021/06/14 04:10:39;;;;;;;4.90;3.03;;;;;;;22.34;43.38;102164.00;5053600;28;20078;-57
2021/06/14 04:13:06;;;;;;;5.78;3.13;;;;;;;22.32;43.40;102158.78;5053100;28;20029;-57
2021/06/14 04:15:35;;;;;;;6.32;3.10;;;;;;;22.33;43.61;102159.63;5052260;28;20045;-57
2021/06/14 04:18:00;;;;;;;5.22;3.05;;;;;;;22.32;43.56;102158.78;5053349;28;20100;-57
2021/06/14 04:20:26;;;;;;;6.40;3.00;;;;;;;22.33;43.53;102168.44;5052428;28;20490;-58
2021/06/14 04:22:52;;;;;;;4.93;2.88;;;;;;;22.33;43.28;102164.94;5053002;28;20035;-55
2021/06/14 04:25:17;;;;;;;5.05;2.80;;;;;;;22.32;43.53;102164.09;5052668;28;20059;-56
2021/06/14 04:27:43;;;;;;;6.50;3.60;;;;;;;22.32;43.53;102164.09;5052073;28;20025;-56
2021/06/14 04:30:09;;;;;;;5.57;3.00;;;;;;;22.33;43.59;102167.59;5052495;28;20072;-57
2021/06/14 04:32:34;;;;;;;6.13;3.30;;;;;;;22.33;43.50;102162.28;5052932;28;20044;-56
2021/06/14 04:34:59;;;;;;;5.77;2.80;;;;;;;22.32;43.38;102153.50;5052153;28;20380;-55
2021/06/14 04:37:24;;;;;;;5.50;3.25;;;;;;;22.32;43.35;102150.84;5052632;28;20262;-56
2021/06/14 04:39:50;;;;;;;5.67;2.83;;;;;;;22.30;43.48;102150.09;5052844;28;20533;-57
2021/06/14 04:42:15;;;;;;;5.30;3.20;;;;;;;22.32;43.54;102149.97;5051683;28;20266;-57
2021/06/14 04:44:40;;;;;;;5.97;3.60;;;;;;;22.27;43.49;102151.16;5052520;28;20327;-56
2021/06/14 04:47:05;;;;;;;5.30;2.70;;;;;;;22.32;43.66;102155.28;5052485;28;20017;-56
2021/06/14 04:49:34;;;;;;;5.03;3.10;;;;;;;22.32;43.50;102158.78;5051867;28;20388;-56
2021/06/14 04:51:59;;;;;;;4.78;2.83;;;;;;;22.32;43.57;102144.66;5052704;28;20097;-57
2021/06/14 04:54:24;;;;;;;4.97;2.97;;;;;;;22.31;43.54;102146.47;5052025;28;20032;-57
2021/06/14 04:56:50;;;;;;;5.73;3.17;;;;;;;22.32;43.64;102153.50;5051729;28;20488;-57
2021/06/14 04:59:15;;;;;;;5.25;3.20;;;;;;;22.32;43.60;102145.50;5052061;28;20281;-57
2021/06/14 05:01:40;;;;;;;6.10;3.00;;;;;;;22.32;43.65;102152.63;5052541;28;20033;-56
2021/06/14 05:04:06;;;;;;;5.82;3.20;;;;;;;22.32;43.63;102152.63;5051484;28;20032;-57
2021/06/14 05:06:31;;;;;;;5.47;3.43;;;;;;;22.33;43.70;102160.47;5052504;28;20078;-56
2021/06/14 05:08:56;;;;;;;5.60;3.03;;;;;;;22.31;43.83;102154.44;5052371;28;20300;-56
2021/06/14 05:11:22;;;;;;;5.22;3.20;;;;;;;22.31;43.98;102154.44;5051040;28;20272;-56
2021/06/14 05:13:47;;;;;;;6.75;3.28;;;;;;;22.33;43.86;102159.63;5052064;28;20180;-55
2021/06/14 05:16:13;;;;;;;5.88;3.13;;;;;;;22.33;43.61;102156.97;5051822;28;20387;-57
2021/06/14 05:18:38;;;;;;;5.20;3.40;;;;;;;22.31;43.77;102154.44;5051486;28;20017;-57
2021/06/14 05:21:04;;;;;;;5.85;3.65;;;;;;;22.34;43.88;102166.66;5051863;28;20029;-56
2021/06/14 05:23:29;;;;;;;5.45;3.00;;;;;;;22.34;43.98;102164.81;5052060;28;20071;-57
2021/06/14 05:25:54;;;;;;;5.00;3.53;;;;;;;22.34;43.70;102158.69;5051265;28;20025;-56
2021/06/14 05:28:20;;;;;;;6.70;3.30;;;;;;;22.32;43.90;102152.63;5051577;28;20270;-56
2021/06/14 05:30:45;;;;;;;6.57;3.60;;;;;;;22.35;44.06;102160.34;5051335;28;20025;-58
2021/06/14 05:33:10;;;;;;;5.70;3.42;;;;;;;22.34;43.73;102159.50;5051502;28;20729;-57
2021/06/14 05:35:36;;;;;;;5.47;3.07;;;;;;;22.36;43.95;102172.66;5052102;28;20025;-57
2021/06/14 05:38:01;;;;;;;4.72;3.13;;;;;;;22.35;43.98;102169.19;5050990;28;20780;-57
2021/06/14 05:40:28;;;;;;;5.35;3.33;;;;;;;22.35;43.92;102171.84;5051844;28;20032;-57
2021/06/14 05:42:54;;;;;;;7.32;4.10;;;;;;;22.36;43.90;102170.84;5051736;28;20037;-57
2021/06/14 05:45:19;;;;;;;6.28;3.10;;;;;;;22.37;43.98;102182.34;5050872;28;20025;-57
2021/06/14 05:47:48;;;;;;;5.90;3.42;;;;;;;22.38;44.12;102176.03;5052112;28;20112;-57
2021/06/14 05:50:16;;;;;;;8.77;3.50;;;;;;;22.38;44.07;102168.06;5051786;28;20014;-57
2021/06/14 05:52:41;;;;;;;8.68;3.58;;;;;;;22.39;44.08;102159.16;5050856;28;20083;-57
2021/06/14 05:55:07;;;;;;;5.65;3.67;;;;;;;22.38;44.01;102160.09;5051340;28;20063;-58
2021/06/14 05:57:33;;;;;;;7.10;3.83;;;;;;;22.36;44.07;102154.91;5051550;28;20025;-54
2021/06/14 05:59:58;;;;;;;8.52;4.63;;;;;;;22.34;43.97;102162.16;5051035;28;20468;-55
2021/06/14 06:02:23;;;;;;;11.13;5.20;;;;;;;22.32;43.93;102161.44;5051353;28;20078;-56
2021/06/14 06:04:49;;;;;;;8.98;5.43;;;;;;;22.28;43.93;102149.34;5051646;28;20274;-56
2021/06/14 06:07:14;;;;;;;11.82;5.55;;;;;;;22.28;43.70;102144.03;5050594;28;20036;-58
2021/06/14 06:09:39;;;;;;;10.27;5.40;;;;;;;22.28;43.37;102147.50;5051636;28;20078;-54
2021/06/14 06:12:05;;;;;;;11.97;5.40;;;;;;;22.26;43.29;102138.84;5051154;28;20052;-56
2021/06/14 06:14:31;;;;;;;10.68;4.78;;;;;;;22.25;42.90;102133.66;5053189;28;20061;-58
2021/06/14 06:16:56;;;;;;;8.87;4.27;;;;;;;22.27;42.81;102139.66;5055671;28;20027;-56
2021/06/14 06:19:21;;;;;;;8.83;4.40;;;;;;;22.26;43.44;102132.69;5055260;28;20709;-56
2021/06/14 06:21:47;;;;;;;9.00;4.22;;;;;;;22.26;43.12;102135.34;5054709;28;20335;-56
2021/06/14 06:24:12;;;;;;;9.13;4.05;;;;;;;22.26;43.25;102136.19;5055023;28;20040;-57
2021/06/14 06:26:38;;;;;;;9.95;3.90;;;;;;;22.27;43.08;102132.56;5055108;28;20045;-57
2021/06/14 06:29:03;;;;;;;10.02;4.35;;;;;;;22.28;42.89;102131.59;5054220;28;20178;-56
2021/06/14 06:31:30;;;;;;;8.88;4.75;;;;;;;22.31;43.03;102121.75;5055552;28;20017;-56
2021/06/14 06:33:56;;;;;;;9.15;4.35;;;;;;;22.33;42.80;102122.44;5054569;28;20036;-57
2021/06/14 06:36:21;;;;;;;12.23;4.35;;;;;;;22.33;42.91;102117.13;5055004;28;20037;-57
2021/06/14 06:38:46;;;;;;;8.80;4.33;;;;;;;22.34;42.90;102117.03;5055329;28;20021;-57
2021/06/14 06:41:12;;;;;;;9.40;4.60;;;;;;;22.36;42.80;102123.03;5054306;28;20270;-57
2021/06/14 06:43:37;;;;;;;10.90;4.30;;;;;;;22.33;42.58;102109.16;5054996;28;20377;-57
2021/06/14 06:46:04;;;;;;;9.15;4.32;;;;;;;22.38;42.39;102113.16;5054798;28;20033;-55
2021/06/14 06:48:29;;;;;;;8.10;3.85;;;;;;;22.39;42.63;102114.00;5054385;28;20423;-57
2021/06/14 06:50:58;;;;;;;9.00;4.15;;;;;;;22.40;42.60;102116.53;5055889;28;20035;-56
2021/06/14 06:53:28;;;;;;;10.38;4.57;;;;;;;22.38;42.51;102112.31;5056795;28;20021;-57
2021/06/14 06:55:54;;;;;;;10.85;4.35;;;;;;;22.44;42.62;102125.94;5055757;28;20021;-56
2021/06/14 06:58:20;;;;;;;8.07;4.15;;;;;;;22.45;42.66;102121.47;5056434;28;20043;-57
2021/06/14 07:00:48;;;;;;;8.05;4.07;;;;;;;22.45;42.55;102105.53;5057168;28;20036;-57
2021/06/14 07:03:14;;;;;;;10.15;4.75;;;;;;;22.48;42.46;102115.06;5056129;28;20029;-55
2021/06/14 07:05:40;;;;;;;10.02;4.05;;;;;;;22.49;42.59;102111.44;5057507;28;20032;-56
2021/06/14 07:08:06;;;;;;;11.38;4.10;;;;;;;22.48;42.60;102102.66;5057132;28;20033;-56
2021/06/14 07:10:32;;;;;;;10.23;4.47;;;;;;;22.49;42.50;102099.00;5056955;28;20029;-56
2021/06/14 07:12:59;;;;;;;8.60;4.18;;;;;;;22.50;42.26;102099.88;5054854;28;20104;-56
2021/06/14 07:15:25;;;;;;;10.73;4.20;;;;;;;22.50;42.31;102102.53;5054137;28;20102;-56
2021/06/14 07:17:50;;;;;;;9.23;4.30;;;;;;;22.49;42.47;102104.31;5053951;28;20020;-55
2021/06/14 07:20:15;;;;;;;9.82;4.35;;;;;;;22.49;42.39;102100.81;5053356;28;20037;-57
2021/06/14 07:22:41;;;;;;;9.93;4.63;;;;;;;22.52;42.31;102097.91;5056260;28;20036;-58
2021/06/14 07:25:08;;;;;;;8.25;4.03;;;;;;;22.52;42.20;102097.91;5053564;28;20449;-56
2021/06/14 07:27:36;;;;;;;10.82;4.90;;;;;;;22.52;42.22;102098.75;5056078;28;20021;-58
2021/06/14 07:30:05;;;;;;;10.07;4.65;;;;;;;22.54;42.17;102098.63;5055939;28;20055;-59
2021/06/14 07:32:30;;;;;;;6.50;3.40;;;;;;;22.57;41.93;102095.72;5056183;28;20017;-58
2021/06/14 07:34:55;;;;;;;8.15;3.88;;;;;;;22.58;42.15;102092.94;5054189;28;20032;-58
2021/06/14 07:37:21;;;;;;;8.15;4.13;;;;;;;22.59;42.26;102084.03;5053499;28;20040;-58
2021/06/14 07:39:46;;;;;;;9.68;3.70;;;;;;;22.59;42.31;102081.38;5054972;28;20100;-58
2021/06/14 07:42:12;;;;;;;8.98;3.40;;;;;;;22.64;42.25;102086.31;5054005;28;20370;-57
2021/06/14 07:44:37;;;;;;;7.85;3.50;;;;;;;22.64;42.12;102075.69;5053316;28;20017;-57
2021/06/14 07:47:03;;;;;;;9.57;3.78;;;;;;;22.66;41.95;102081.72;5052760;28;20037;-58
2021/06/14 07:49:29;;;;;;;7.63;3.55;;;;;;;22.69;42.08;102080.63;5054797;28;20017;-59
2021/06/14 07:51:57;;;;;;;7.43;3.28;;;;;;;22.70;41.55;102077.84;5055605;28;20036;-58
2021/06/14 07:54:23;;;;;;;9.15;3.80;;;;;;;22.69;40.99;102065.50;5054006;28;20025;-58
2021/06/14 07:56:49;;;;;;;8.68;3.30;;;;;;;22.63;40.41;102056.22;5054360;28;20035;-59
2021/06/14 07:59:15;;;;;;;7.13;3.33;;;;;;;22.66;40.66;102064.94;5053694;28;20028;-59
2021/06/14 08:01:43;;;;;;;6.70;3.10;;;;;;;22.66;40.80;102051.66;5055714;28;20021;-58
2021/06/14 08:04:09;;;;;;;7.50;3.60;;;;;;;22.67;40.97;102042.69;5056017;28;20306;-59
2021/06/14 08:06:34;;;;;;;8.05;3.22;;;;;;;22.70;41.29;102051.28;5062633;28;20051;-59
2021/06/14 08:09:02;;;;;;;8.00;3.20;;;;;;;22.72;41.20;102049.31;5054833;28;20107;-60
2021/06/14 08:11:28;;;;;;;6.32;3.58;;;;;;;22.75;41.39;102042.94;5055751;28;20127;-60
2021/06/14 08:13:54;;;;;;;7.07;3.10;;;;;;;22.76;41.52;102037.44;5054528;28;20045;-59
2021/06/14 08:16:19;;;;;;;7.05;3.40;;;;;;;22.79;41.11;102031.88;5054378;28;20484;-59
2021/06/14 08:18:59;;;;;;;8.07;3.15;;;;;;;22.79;41.01;102026.56;5054373;28;20104;-58
2021/06/14 08:26:54;;;;;;;7.95;3.10;;;;;;;22.83;41.16;102030.69;5054754;28;20051;-60
2021/06/14 08:29:22;;;;;;;6.35;3.17;;;;;;;22.87;41.27;102030.41;5054310;28;20388;-59
2021/06/14 08:31:48;;;;;;;6.28;2.70;;;;;;;22.87;41.10;102017.13;5054491;28;20017;-59
2021/06/14 08:34:13;;;;;;;6.05;3.03;;;;;;;22.90;41.12;102023.03;5053398;28;20100;-59
2021/06/14 08:36:39;;;;;;;5.85;2.67;;;;;;;22.92;41.12;102029.09;5053535;28;20543;-59
2021/06/14 08:39:07;;;;;;;5.90;2.78;;;;;;;22.92;41.10;102029.09;5054272;28;20032;-60
2021/06/14 08:41:33;;;;;;;8.52;2.90;;;;;;;22.96;41.05;102040.28;5053961;28;20075;-58
2021/06/14 08:43:59;;;;;;;7.25;2.90;;;;;;;22.94;41.08;102032.44;5053405;28;20033;-58
2021/06/14 08:46:27;;;;;;;4.97;3.10;;;;;;;22.96;41.04;102030.50;5053215;28;20017;-59
2021/06/14 08:48:54;;;;;;;7.15;2.97;;;;;;;22.98;41.22;102025.88;5053012;28;20083;-58
2021/06/14 08:51:20;;;;;;;6.15;2.65;;;;;;;22.99;40.71;102034.72;5053127;28;20025;-59
2021/06/14 08:53:51;;;;;;;5.35;2.60;;;;;;;22.99;40.23;102032.06;5053202;28;20029;-61
2021/06/14 08:56:21;;;;;;;5.20;2.67;;;;;;;23.00;39.85;102029.28;5055482;28;20056;-58
2021/06/14 08:58:51;;;;;;;5.20;2.45;;;;;;;23.01;39.85;102019.47;5053901;28;20055;-63
2021/06/14 09:01:17;;;;;;;5.65;2.60;;;;;;;23.03;40.20;102016.69;5052170;28;20017;-58
2021/06/14 09:03:43;;;;;;;5.07;2.85;;;;;;;23.05;39.69;102025.38;5051731;28;20028;-58
2021/06/14 09:06:08;;;;;;;5.85;2.60;;;;;;;23.07;39.74;102015.47;5052088;28;20025;-57
2021/06/14 09:08:34;;;;;;;5.68;2.50;;;;;;;23.09;40.18;102014.38;5052592;28;20029;-60
2021/06/14 09:11:00;;;;;;;5.40;2.40;;;;;;;23.13;40.32;102014.97;5051573;28;20029;-59
2021/06/14 09:13:28;;;;;;;5.80;2.75;;;;;;;23.15;40.21;102016.53;5052171;28;20098;-56
2021/06/14 09:16:09;;;;;;;5.55;2.72;;;;;;;23.19;40.53;102014.44;5052470;28;20041;-58
2021/06/14 09:18:36;;;;;;;4.28;2.63;;;;;;;23.19;40.32;102017.09;5052863;28;20048;-58
2021/06/14 09:21:10;;;;;;;6.32;2.50;;;;;;;23.20;40.58;102010.81;5052107;28;20025;-59
2021/06/14 09:23:56;;;;;;;7.03;2.58;;;;;;;23.23;40.73;102015.06;5051715;28;20021;-59
2021/06/14 09:26:29;;;;;;;7.15;2.85;;;;;;;23.22;39.87;102005.38;5052403;28;20037;-59
2021/06/14 09:29:07;;;;;;;5.45;2.67;;;;;;;23.23;40.23;101999.94;5052672;28;20074;-59
2021/06/14 09:31:47;;;;;;;4.10;2.42;;;;;;;23.24;40.32;102000.75;5051727;28;20029;-59
2021/06/14 09:34:13;;;;;;;4.40;2.30;;;;;;;23.24;40.62;101992.78;5052160;28;20033;-61
2021/06/14 09:36:42;;;;;;;6.75;2.90;;;;;;;23.24;40.13;101995.44;5052562;28;20491;-59
2021/06/14 09:39:08;;;;;;;8.90;2.67;;;;;;;23.25;40.32;101997.13;5051458;28;20043;-60
2021/06/14 09:41:47;;;;;;;7.22;2.80;;;;;;;23.26;40.90;101994.34;5035134;28;20025;-60
2021/06/14 09:44:13;;;;;;;6.80;2.50;;;;;;;23.26;41.08;101986.38;5052211;28;20032;-60
2021/06/14 09:46:39;;;;;;;4.45;2.50;;;;;;;23.26;41.36;101982.88;5052155;28;20025;-60
2021/06/14 09:49:05;;;;;;;5.55;2.83;;;;;;;23.27;41.53;101987.19;5051527;28;20029;-59
2021/06/14 09:51:35;;;;;;;8.02;2.95;;;;;;;23.27;41.86;101996.00;5051706;28;20071;-60
2021/06/14 09:54:02;;;;;;;6.65;2.50;;;;;;;23.28;41.96;101991.56;5052836;28;20021;-60
2021/06/14 09:56:36;;;;;;;6.60;2.80;;;;;;;23.28;42.12;101996.88;5052241;28;20029;-59
2021/06/14 09:59:03;;;;;;;5.72;2.47;;;;;;;23.28;42.22;101992.41;5051486;28;20032;-59
2021/06/14 10:01:34;;;;;;;5.30;2.50;;;;;;;23.28;42.17;101989.72;5051993;28;20033;-60
2021/06/14 10:04:04;;;;;;;7.00;2.80;;;;;;;23.28;42.05;101987.06;5052318;28;20043;-59
2021/06/14 10:06:38;;;;;;;5.07;2.38;;;;;;;23.28;42.30;102002.19;5051583;28;20021;-60
2021/06/14 10:09:10;;;;;;;7.75;2.97;;;;;;;23.28;42.27;101989.72;5052035;28;20093;-58
2021/06/14 10:11:38;;;;;;;5.07;2.20;;;;;;;23.28;42.19;101995.06;5052645;28;20021;-59
2021/06/14 10:14:12;;;;;;;6.15;2.60;;;;;;;23.28;42.32;101988.91;5051868;28;20049;-59
2021/06/14 10:16:37;;;;;;;;;;;;;;;23.29;42.40;101983.44;5055039;28;20086;-59
2021/06/14 10:19:06;;;;;;;4.50;2.30;;;;;;;23.30;42.43;101982.47;5052104;28;19917;-60
2021/06/14 10:21:37;;;;;;;6.28;2.45;;;;;;;23.29;42.53;101986.13;5051960;28;20021;-59
2021/06/14 10:24:06;;;;;;;5.15;2.20;;;;;;;23.27;42.42;101982.72;5051579;28;20075;-58
2021/06/14 10:26:34;;;;;;;5.10;2.50;;;;;;;23.24;42.47;101975.03;5051143;28;20021;-59
2021/06/14 10:29:00;;;;;;;5.20;2.60;;;;;;;23.24;42.37;101983.00;5051959;28;20047;-59
2021/06/14 10:31:29;;;;;;;5.93;2.58;;;;;;;23.27;42.58;101976.56;5051534;28;20524;-59
2021/06/14 10:33:55;;;;;;;5.70;2.78;;;;;;;23.27;42.57;101981.88;5050612;28;20508;-57
2021/06/14 10:36:26;;;;;;;7.35;2.70;;;;;;;23.27;42.62;101972.06;5051321;28;20557;-59
2021/06/14 10:38:53;;;;;;;6.18;2.60;;;;;;;23.27;42.62;101977.41;5051581;28;20108;-58
2021/06/14 10:41:19;;;;;;;4.93;2.50;;;;;;;23.30;42.79;101970.97;5050751;28;20021;-60
2021/06/14 10:43:49;;;;;;;7.20;2.50;;;;;;;23.29;42.96;101975.47;5051539;28;20022;-59
2021/06/14 10:46:19;;;;;;;6.88;2.20;;;;;;;23.31;42.88;101964.72;5051031;28;20024;-59
2021/06/14 10:48:46;;;;;;;6.10;2.88;;;;;;;23.31;43.08;101962.88;5050996;28;20510;-59
2021/06/14 10:51:14;;;;;;;6.05;2.60;;;;;;;23.32;43.33;101948.63;5051687;28;20031;-59
2021/06/14 10:53:51;;;;;;;5.65;2.38;;;;;;;23.34;43.24;101953.81;5052382;28;20036;-59
2021/06/14 10:56:22;;;;;;;5.70;2.30;;;;;;;23.36;43.35;101960.66;5050889;28;20036;-60
2021/06/14 10:59:05;;;;;;;5.20;2.45;;;;;;;23.37;43.33;101966.84;5051699;28;20100;-60
2021/06/14 11:01:39;;;;;;;5.13;2.50;;;;;;;23.38;43.37;101960.53;5054950;28;20029;-58
2021/06/14 11:04:06;;;;;;;4.45;2.03;;;;;;;23.38;43.27;101954.38;5054968;28;20100;-60
2021/06/14 11:06:34;;;;;;;7.60;2.50;;;;;;;23.39;43.43;101958.72;5055832;28;20111;-61
2021/06/14 11:09:01;;;;;;;5.97;2.50;;;;;;;23.40;43.53;101952.41;5055469;28;20480;-61
2021/06/14 11:11:27;;;;;;;6.07;2.42;;;;;;;23.40;43.36;101949.75;5055655;28;20029;-59
2021/06/14 11:13:53;;;;;;;4.15;2.20;;;;;;;23.40;43.33;101947.09;5054224;28;20064;-61
2021/06/14 11:16:19;;;;;;;5.15;2.30;;;;;;;23.40;43.35;101936.44;5053380;28;20078;-58
2021/06/14 11:18:45;;;;;;;6.60;2.45;;;;;;;23.38;43.34;101935.75;5054542;28;20469;-58
2021/06/14 11:21:19;;;;;;;5.63;2.45;;;;;;;23.39;43.33;101934.78;5054158;28;20023;-57
2021/06/14 11:23:47;;;;;;;4.35;2.13;;;;;;;23.39;43.30;101932.97;5053343;28;20476;-57
2021/06/14 11:26:24;;;;;;;4.68;2.03;;;;;;;23.39;43.34;101932.13;5053993;28;20044;-59
2021/06/14 11:28:49;;;;;;;5.22;2.20;;;;;;;23.40;43.25;101926.69;5054050;28;20025;-58
2021/06/14 11:31:27;;;;;;;5.15;2.10;;;;;;;23.40;43.29;101925.81;5051901;28;20051;-58
2021/06/14 11:33:54;;;;;;;5.32;2.45;;;;;;;23.40;43.36;101929.34;5054072;28;20116;-58